Time;durP1;ratioP1;P1;durP2;ratioP2;P2;SDS_P1;SDS_P2;PMS_P1;PMS_P2;Temp;Humidity;BMP_temperature;BMP_pressure;BME280_temperature;BME280_humidity;BME280_pressure;Samples;Min_cycle;Max_cycle;Signal;HPM_P1;HPM_P2
2021/03/14 00:02:16;;;;;;;4.63;1.00;;;8.80;62.10;;;;;;5070393;28;20206;-42
2021/03/14 00:04:42;;;;;;;1.13;0.77;;;8.80;62.10;;;;;;5069189;28;20241;-42
2021/03/14 00:07:08;;;;;;;1.47;0.70;;;8.50;62.00;;;;;;5070247;28;20250;-42
2021/03/14 00:09:34;;;;;;;1.37;0.73;;;8.60;62.90;;;;;;5073207;28;20198;-42
2021/03/14 00:11:59;;;;;;;1.10;0.63;;;8.80;62.50;;;;;;5068798;28;20246;-43
2021/03/14 00:14:25;;;;;;;1.60;0.67;;;8.50;63.20;;;;;;5070842;28;20467;-42
2021/03/14 00:16:52;;;;;;;0.60;0.60;;;8.60;62.40;;;;;;5070883;28;20445;-42
2021/03/14 00:19:19;;;;;;;4.03;0.90;;;8.60;62.40;;;;;;5069971;28;20585;-42
2021/03/14 00:21:45;;;;;;;1.80;0.70;;;8.60;62.50;;;;;;5070438;28;20453;-42
2021/03/14 00:24:11;;;;;;;1.07;0.60;;;8.80;62.40;;;;;;5071334;28;20442;-42
2021/03/14 00:26:36;;;;;;;1.37;0.70;;;8.70;62.30;;;;;;5070542;28;20497;-42
2021/03/14 00:29:04;;;;;;;1.03;0.80;;;8.80;62.30;;;;;;5070295;28;20204;-42
2021/03/14 00:31:29;;;;;;;0.70;0.70;;;8.70;62.60;;;;;;5068418;28;20231;-42
2021/03/14 00:33:55;;;;;;;0.63;0.60;;;8.60;62.40;;;;;;5069764;28;20456;-42
2021/03/14 00:36:20;;;;;;;0.60;0.60;;;8.70;63.10;;;;;;5069859;28;20200;-42
2021/03/14 00:38:46;;;;;;;0.70;0.70;;;8.80;63.50;;;;;;5070450;28;20557;-42
2021/03/14 00:41:11;;;;;;;0.90;0.60;;;9.10;63.80;;;;;;5070410;28;20619;-42
2021/03/14 00:43:37;;;;;;;0.80;0.60;;;8.90;63.10;;;;;;5072755;28;20245;-42
2021/03/14 00:46:03;;;;;;;2.37;0.97;;;8.80;63.30;;;;;;5069885;28;20568;-42
2021/03/14 00:48:28;;;;;;;0.60;0.53;;;8.70;63.90;;;;;;5070283;28;20192;-42
2021/03/14 00:50:54;;;;;;;0.60;0.50;;;8.80;64.50;;;;;;5069472;28;20210;-42
2021/03/14 00:53:20;;;;;;;1.23;0.60;;;8.50;64.00;;;;;;5070984;28;20195;-42
2021/03/14 00:55:46;;;;;;;1.70;0.87;;;8.10;65.40;;;;;;5070487;28;20198;-42
2021/03/14 00:58:12;;;;;;;0.60;0.60;;;8.10;66.50;;;;;;5070562;28;20270;-42
2021/03/14 01:00:37;;;;;;;0.70;0.60;;;8.10;66.00;;;;;;5067491;28;20426;-42
2021/03/14 01:03:03;;;;;;;0.80;0.60;;;8.10;66.40;;;;;;5070526;28;20196;-42
2021/03/14 01:05:29;;;;;;;0.70;0.60;;;7.90;66.40;;;;;;5069606;28;20269;-42
2021/03/14 01:07:54;;;;;;;0.50;0.40;;;8.10;66.80;;;;;;5069361;28;20196;-42
2021/03/14 01:10:20;;;;;;;0.63;0.60;;;8.30;66.20;;;;;;5069764;28;20698;-42
2021/03/14 01:12:46;;;;;;;0.47;0.40;;;8.50;65.60;;;;;;5070842;28;20195;-42
2021/03/14 01:15:14;;;;;;;0.60;0.60;;;8.80;65.00;;;;;;5069819;28;20222;-42
2021/03/14 01:17:40;;;;;;;0.67;0.60;;;8.90;64.50;;;;;;5075158;28;20722;-42
2021/03/14 01:20:15;;;;;;;0.50;0.50;;;9.00;63.80;;;;;;5071290;28;20430;-42
2021/03/14 01:22:40;;;;;;;0.97;0.60;;;9.00;63.50;;;;;;5070737;28;20944;-42
2021/03/14 01:25:08;;;;;;;0.60;0.60;;;9.10;63.40;;;;;;5069456;28;20519;-42
2021/03/14 01:27:34;;;;;;;0.60;0.50;;;9.10;63.00;;;;;;5067706;28;20291;-42
2021/03/14 01:30:00;;;;;;;1.23;0.60;;;9.20;62.90;;;;;;5069973;28;20487;-42
2021/03/14 01:32:26;;;;;;;0.70;0.70;;;9.30;62.90;;;;;;5070385;28;20469;-42
2021/03/14 01:34:51;;;;;;;0.50;0.50;;;9.30;62.10;;;;;;5069128;28;20202;-42
2021/03/14 01:37:18;;;;;;;0.50;0.50;;;9.30;62.00;;;;;;5068606;28;20279;-42
2021/03/14 01:39:44;;;;;;;0.67;0.60;;;9.20;62.10;;;;;;5067252;28;20247;-42
2021/03/14 01:42:10;;;;;;;1.20;0.67;;;9.30;61.90;;;;;;5069584;28;20948;-42
2021/03/14 01:44:36;;;;;;;0.60;0.50;;;9.30;61.80;;;;;;5070069;28;20430;-42
2021/03/14 01:47:03;;;;;;;0.50;0.50;;;9.40;61.60;;;;;;5069509;28;20481;-42
2021/03/14 01:49:30;;;;;;;1.00;0.60;;;9.40;61.30;;;;;;5069819;28;20188;-42
2021/03/14 01:51:55;;;;;;;0.70;0.60;;;9.30;61.00;;;;;;5077177;28;20470;-42
2021/03/14 01:54:23;;;;;;;1.23;0.50;;;9.20;60.80;;;;;;5073363;28;20918;-42
2021/03/14 01:56:48;;;;;;;0.50;0.50;;;9.10;61.20;;;;;;5072191;28;20211;-42
2021/03/14 01:59:15;;;;;;;0.70;0.60;;;9.20;61.20;;;;;;5072996;28;20441;-42
2021/03/14 02:01:42;;;;;;;0.60;0.50;;;9.20;61.40;;;;;;5071780;28;20188;-42
2021/03/14 02:04:08;;;;;;;1.63;1.53;;;9.10;61.60;;;;;;5073464;28;20455;-42
2021/03/14 02:06:34;;;;;;;0.63;0.60;;;9.10;61.80;;;;;;5073069;28;21257;-42
2021/03/14 02:08:59;;;;;;;0.90;0.53;;;9.10;61.60;;;;;;5073660;28;20199;-42
2021/03/14 02:11:30;;;;;;;0.70;0.70;;;9.10;61.70;;;;;;5073130;28;20207;-42
2021/03/14 02:13:59;;;;;;;0.60;0.50;;;9.20;62.00;;;;;;5072870;28;20553;-42
2021/03/14 02:16:30;;;;;;;0.73;0.50;;;9.10;61.90;;;;;;5063598;28;20434;-42
2021/03/14 02:18:59;;;;;;;0.50;0.50;;;9.10;61.80;;;;;;5071650;28;20437;-42
2021/03/14 02:21:26;;;;;;;1.53;0.50;;;9.30;61.80;;;;;;5072719;28;20818;-42
2021/03/14 02:24:07;;;;;;;0.60;0.53;;;9.40;61.70;;;;;;5071312;28;20523;-42
2021/03/14 02:26:45;;;;;;;0.60;0.50;;;9.40;61.70;;;;;;5072634;28;20490;-42
2021/03/14 02:29:12;;;;;;;0.70;0.70;;;9.30;61.20;;;;;;5071905;28;20433;-42
2021/03/14 02:31:40;;;;;;;0.50;0.40;;;9.10;61.30;;;;;;5073184;28;20469;-42
2021/03/14 02:34:09;;;;;;;0.50;0.50;;;9.10;62.30;;;;;;5072629;28;20477;-42
2021/03/14 02:36:38;;;;;;;0.57;0.57;;;9.20;62.50;;;;;;5071621;28;20521;-42
2021/03/14 02:39:07;;;;;;;3.80;0.40;;;9.10;62.20;;;;;;5071853;28;20487;-42
2021/03/14 02:41:34;;;;;;;0.63;0.63;;;9.00;62.10;;;;;;5072081;28;20556;-42
2021/03/14 02:44:01;;;;;;;0.60;0.60;;;8.90;62.30;;;;;;5073667;28;20467;-42
2021/03/14 02:46:28;;;;;;;0.87;0.63;;;8.60;63.30;;;;;;5071937;28;20486;-42
2021/03/14 02:48:59;;;;;;;3.20;0.70;;;8.30;63.40;;;;;;5070995;28;20433;-42
2021/03/14 02:51:25;;;;;;;0.70;0.70;;;8.20;64.30;;;;;;5068145;28;20465;-42
2021/03/14 02:53:52;;;;;;;2.63;0.83;;;8.10;64.70;;;;;;5072299;28;20850;-42
2021/03/14 02:56:17;;;;;;;1.53;1.00;;;8.10;64.90;;;;;;5072234;28;20442;-42
2021/03/14 02:58:44;;;;;;;0.80;0.80;;;8.20;65.10;;;;;;5072196;28;20966;-42
2021/03/14 03:01:10;;;;;;;1.33;1.00;;;8.30;64.60;;;;;;5073053;28;20191;-42
2021/03/14 03:03:36;;;;;;;1.17;1.07;;;8.40;64.10;;;;;;5071705;28;20958;-42
2021/03/14 03:06:03;;;;;;;0.70;0.70;;;8.50;63.90;;;;;;5070937;28;20227;-42
2021/03/14 03:08:30;;;;;;;1.63;0.90;;;8.50;63.70;;;;;;5071220;28;20430;-42
2021/03/14 03:11:04;;;;;;;1.43;1.10;;;8.60;63.40;;;;;;5071478;28;20926;-42
2021/03/14 03:13:34;;;;;;;1.17;1.07;;;8.70;63.40;;;;;;5072214;28;20430;-42
2021/03/14 03:16:00;;;;;;;1.20;1.10;;;8.80;62.90;;;;;;5071442;28;20433;-42
2021/03/14 03:18:26;;;;;;;0.80;0.80;;;8.70;62.50;;;;;;5075303;28;20427;-42
2021/03/14 03:20:54;;;;;;;1.33;1.00;;;8.70;62.90;;;;;;5068731;28;20442;-42
2021/03/14 03:23:20;;;;;;;1.60;1.50;;;8.80;62.80;;;;;;5071303;28;20426;-42
2021/03/14 03:25:45;;;;;;;2.60;1.23;;;8.70;62.80;;;;;;5070660;28;20481;-42
2021/03/14 03:28:12;;;;;;;1.20;1.00;;;8.70;62.90;;;;;;5071120;28;20435;-42
2021/03/14 03:30:39;;;;;;;1.27;1.17;;;8.70;63.10;;;;;;5070632;28;20227;-42
2021/03/14 03:33:05;;;;;;;1.43;1.33;;;8.50;62.60;;;;;;5072190;28;20430;-42
2021/03/14 03:35:31;;;;;;;1.47;1.37;;;8.50;63.20;;;;;;5082863;28;20468;-42
2021/03/14 03:37:56;;;;;;;1.30;0.83;;;8.40;63.50;;;;;;5071448;28;20430;-42
2021/03/14 03:40:27;;;;;;;1.43;1.07;;;8.40;63.60;;;;;;5070862;28;20432;-42
2021/03/14 03:43:17;;;;;;;0.87;0.87;;;7.90;64.20;;;;;;5071695;28;20981;-42
2021/03/14 03:45:46;;;;;;;0.90;0.90;;;7.90;65.00;;;;;;5069592;28;20510;-42
2021/03/14 03:48:18;;;;;;;2.67;0.90;;;7.80;65.50;;;;;;5070473;28;20843;-42
2021/03/14 03:50:45;;;;;;;1.70;0.90;;;7.60;65.80;;;;;;5076464;28;20487;-42
2021/03/14 03:53:12;;;;;;;2.10;1.40;;;7.90;65.90;;;;;;5071037;28;20521;-42
2021/03/14 03:55:39;;;;;;;1.73;0.97;;;7.90;65.90;;;;;;5071109;28;20766;-42
2021/03/14 03:58:05;;;;;;;2.13;1.17;;;8.10;65.50;;;;;;5070550;28;20462;-42
2021/03/14 04:00:31;;;;;;;1.43;0.90;;;8.10;65.10;;;;;;5071335;28;20433;-42
2021/03/14 04:03:01;;;;;;;2.10;1.20;;;8.20;65.40;;;;;;5070819;28;20434;-42
2021/03/14 04:05:27;;;;;;;2.07;1.30;;;8.20;64.40;;;;;;5070616;28;21048;-42
2021/03/14 04:07:54;;;;;;;1.17;1.07;;;8.50;64.10;;;;;;5071383;28;20766;-42
2021/03/14 04:10:22;;;;;;;1.50;1.13;;;8.70;63.20;;;;;;5069947;28;20426;-42
2021/03/14 04:12:50;;;;;;;1.20;0.90;;;8.70;62.70;;;;;;5069257;28;20430;-42
2021/03/14 04:15:19;;;;;;;1.87;1.03;;;8.60;62.00;;;;;;5069969;28;20449;-41
2021/03/14 04:17:45;;;;;;;1.23;0.80;;;8.70;62.10;;;;;;5069897;28;20438;-42
2021/03/14 04:20:23;;;;;;;1.47;0.80;;;8.90;61.80;;;;;;5070673;28;20453;-42
2021/03/14 04:22:54;;;;;;;0.90;0.80;;;8.80;61.50;;;;;;5070461;28;20425;-42
2021/03/14 04:25:22;;;;;;;1.57;0.80;;;8.70;61.40;;;;;;5069268;28;20481;-42
2021/03/14 04:27:49;;;;;;;1.23;0.93;;;8.90;61.40;;;;;;5070774;28;20770;-42
2021/03/14 04:30:16;;;;;;;3.90;1.00;;;8.90;61.00;;;;;;5070619;28;20797;-42
2021/03/14 04:32:42;;;;;;;2.93;1.10;;;8.80;60.70;;;;;;5070289;28;20568;-42
2021/03/14 04:35:09;;;;;;;1.10;0.80;;;8.90;60.90;;;;;;5070600;28;20438;-42
2021/03/14 04:37:37;;;;;;;1.07;0.60;;;8.70;60.40;;;;;;5069823;28;20196;-42
2021/03/14 04:40:05;;;;;;;0.90;0.80;;;8.70;61.40;;;;;;5068742;28;20962;-42
2021/03/14 04:42:32;;;;;;;0.90;0.73;;;8.70;60.90;;;;;;5071626;28;20436;-42
2021/03/14 04:44:58;;;;;;;1.13;0.67;;;8.50;60.80;;;;;;5069798;28;20771;-42
2021/03/14 04:47:23;;;;;;;1.10;0.90;;;8.50;61.40;;;;;;5070700;28;20446;-43
2021/03/14 04:49:49;;;;;;;0.70;0.60;;;8.50;60.80;;;;;;5070593;28;20429;-42
2021/03/14 04:52:19;;;;;;;0.60;0.60;;;8.20;61.30;;;;;;5071279;28;20195;-42
2021/03/14 04:54:49;;;;;;;1.03;0.70;;;8.30;62.10;;;;;;5068542;28;20199;-42
2021/03/14 04:57:19;;;;;;;2.67;0.70;;;8.20;61.50;;;;;;5069958;28;20510;-42
2021/03/14 04:59:46;;;;;;;1.20;0.77;;;8.00;61.70;;;;;;5071733;28;20441;-42
2021/03/14 05:02:13;;;;;;;1.43;0.97;;;7.90;62.30;;;;;;5070795;28;20466;-42
2021/03/14 05:04:42;;;;;;;1.47;0.60;;;8.00;63.00;;;;;;5069782;28;20531;-42
2021/03/14 05:07:10;;;;;;;1.20;0.83;;;8.10;63.00;;;;;;5068082;28;20996;-42
2021/03/14 05:09:37;;;;;;;2.87;2.10;;;8.10;62.50;;;;;;5068898;28;20794;-42
2021/03/14 05:12:04;;;;;;;1.97;0.80;;;8.20;62.60;;;;;;5070554;28;20498;-42
2021/03/14 05:14:30;;;;;;;1.47;0.80;;;8.00;62.90;;;;;;5070090;28;20914;-42
2021/03/14 05:16:56;;;;;;;1.27;0.97;;;8.10;63.20;;;;;;5081802;28;20426;-42
2021/03/14 05:19:22;;;;;;;1.57;0.87;;;8.20;63.30;;;;;;5070953;28;20472;-42
2021/03/14 05:21:47;;;;;;;2.07;1.27;;;8.30;62.60;;;;;;5069432;28;20432;-41
2021/03/14 05:24:13;;;;;;;3.23;0.97;;;8.00;62.00;;;;;;5070273;28;20184;-42
2021/03/14 05:26:43;;;;;;;3.13;1.17;;;8.00;63.20;;;;;;5068723;28;20231;-42
2021/03/14 05:29:11;;;;;;;3.73;1.30;;;8.00;62.80;;;;;;5070798;28;20192;-42
2021/03/14 05:31:38;;;;;;;3.90;1.03;;;8.10;63.60;;;;;;5074000;28;21011;-42
2021/03/14 05:34:12;;;;;;;4.47;1.20;;;8.10;62.80;;;;;;5072986;28;21256;-42
2021/03/14 05:36:38;;;;;;;3.10;1.10;;;8.20;61.90;;;;;;5069615;28;20471;-42
2021/03/14 05:39:06;;;;;;;2.43;1.30;;;8.10;62.10;;;;;;5074043;28;20444;-42
2021/03/14 05:41:33;;;;;;;1.07;1.00;;;8.00;62.60;;;;;;5073042;28;20241;-42
2021/03/14 05:44:00;;;;;;;2.90;1.10;;;8.00;62.30;;;;;;5073709;28;20784;-42
2021/03/14 05:46:26;;;;;;;2.93;1.00;;;8.30;62.10;;;;;;5073424;28;20560;-42
2021/03/14 05:48:52;;;;;;;1.47;1.17;;;8.40;61.60;;;;;;5073706;28;20506;-42
2021/03/14 05:51:28;;;;;;;2.23;0.90;;;8.40;61.40;;;;;;5073799;28;20199;-42
2021/03/14 05:53:56;;;;;;;3.23;1.37;;;8.50;60.90;;;;;;5073348;28;20202;-42
2021/03/14 05:56:23;;;;;;;2.20;1.10;;;8.50;60.30;;;;;;5072299;28;20439;-42
2021/03/14 05:58:51;;;;;;;1.00;0.80;;;8.50;60.60;;;;;;5073432;28;20429;-42
2021/03/14 06:01:20;;;;;;;2.00;0.80;;;8.40;60.50;;;;;;5066231;28;20445;-42
2021/03/14 06:03:46;;;;;;;0.80;0.70;;;8.50;60.70;;;;;;5071282;28;20499;-42
2021/03/14 06:06:14;;;;;;;3.70;0.80;;;8.20;60.40;;;;;;5072427;28;20532;-42
2021/03/14 06:08:40;;;;;;;1.60;0.80;;;8.00;60.80;;;;;;5073425;28;20444;-42
2021/03/14 06:11:07;;;;;;;0.83;0.60;;;8.10;61.50;;;;;;5073177;28;20862;-42
2021/03/14 06:13:34;;;;;;;1.23;1.13;;;8.10;61.20;;;;;;5072873;28;20785;-43
2021/03/14 06:15:59;;;;;;;2.03;0.80;;;8.30;61.30;;;;;;5071694;28;20438;-42
2021/03/14 06:18:26;;;;;;;2.83;0.90;;;8.00;60.70;;;;;;5073067;28;20464;-42
2021/03/14 06:20:53;;;;;;;1.13;0.80;;;8.20;61.60;;;;;;5073153;28;20188;-42
2021/03/14 06:23:21;;;;;;;1.80;0.80;;;8.20;61.50;;;;;;5073968;28;20491;-42
2021/03/14 06:25:50;;;;;;;0.73;0.70;;;8.40;61.20;;;;;;5072757;28;20494;-42
2021/03/14 06:28:16;;;;;;;1.20;0.90;;;8.40;60.80;;;;;;5072076;28;20904;-42
2021/03/14 06:30:43;;;;;;;2.10;1.13;;;8.20;60.40;;;;;;5071111;28;20933;-42
2021/03/14 06:33:12;;;;;;;1.80;0.77;;;8.30;60.70;;;;;;5072729;28;20880;-42
2021/03/14 06:35:39;;;;;;;0.93;0.90;;;8.50;60.90;;;;;;5072587;28;20446;-42
2021/03/14 06:38:22;;;;;;;1.47;0.90;;;8.40;60.60;;;;;;5070333;28;20486;-42
2021/03/14 06:40:50;;;;;;;2.30;0.80;;;8.60;60.30;;;;;;5065403;28;20442;-42
2021/03/14 06:43:16;;;;;;;1.13;0.93;;;8.80;60.10;;;;;;5072316;28;20434;-42
2021/03/14 06:45:43;;;;;;;1.53;1.07;;;8.90;59.50;;;;;;5072670;28;20519;-42
2021/03/14 06:48:09;;;;;;;2.73;1.30;;;8.90;59.40;;;;;;5072376;28;20437;-42
2021/03/14 06:50:42;;;;;;;8.30;2.03;;;8.70;59.00;;;;;;5072080;28;20925;-42
2021/03/14 06:53:12;;;;;;;3.37;1.57;;;8.60;59.00;;;;;;5072647;28;20241;-42
2021/03/14 06:55:40;;;;;;;2.47;1.47;;;8.60;59.30;;;;;;5072133;28;20437;-42
2021/03/14 06:58:23;;;;;;;1.50;1.17;;;8.60;58.90;;;;;;5070063;28;20522;-42
2021/03/14 07:01:07;;;;;;;3.20;1.20;;;8.50;58.70;;;;;;5070002;28;20445;-42
2021/03/14 07:03:33;;;;;;;2.40;1.40;;;8.30;58.50;;;;;;5072453;28;20445;-42
2021/03/14 07:06:21;;;;;;;2.70;1.30;;;8.40;58.80;;;;;;5072134;28;20484;-42
2021/03/14 07:08:52;;;;;;;1.37;1.20;;;8.30;58.40;;;;;;5067483;28;20207;-42
2021/03/14 07:11:38;;;;;;;4.37;1.23;;;8.30;58.00;;;;;;5070608;28;20435;-42
2021/03/14 07:14:09;;;;;;;3.77;3.43;;;8.20;58.30;;;;;;5072237;28;20496;-43
2021/03/14 07:16:49;;;;;;;3.47;1.90;;;8.40;58.60;;;;;;5066946;28;20438;-43
2021/03/14 07:19:29;;;;;;;2.40;2.30;;;8.30;58.00;;;;;;5063356;28;20456;-42
2021/03/14 07:21:57;;;;;;;5.53;1.73;;;8.40;58.00;;;;;;5070064;28;20477;-43
2021/03/14 07:24:49;;;;;;;2.57;1.57;;;8.60;57.50;;;;;;5064492;28;20470;-42
2021/03/14 07:27:29;;;;;;;3.17;2.80;;;8.50;57.30;;;;;;5064850;28;21081;-44
2021/03/14 07:29:55;;;;;;;7.73;2.70;;;8.80;57.40;;;;;;5059869;28;20469;-43
2021/03/14 07:32:22;;;;;;;6.60;5.67;;;9.10;56.80;;;;;;5072491;28;20474;-42
2021/03/14 07:34:48;;;;;;;4.90;4.40;;;9.30;56.50;;;;;;5069876;28;20950;-43
2021/03/14 07:37:14;;;;;;;6.00;4.90;;;9.40;56.20;;;;;;5072014;28;20438;-43
2021/03/14 07:39:41;;;;;;;4.53;3.23;;;9.30;55.50;;;;;;5071617;28;20677;-42
2021/03/14 07:42:07;;;;;;;4.83;3.67;;;9.10;55.60;;;;;;5066910;28;20430;-43
2021/03/14 07:44:34;;;;;;;2.50;1.53;;;9.20;56.20;;;;;;5070722;28;20434;-43
2021/03/14 07:47:01;;;;;;;6.93;2.37;;;9.10;56.20;;;;;;5071378;28;20572;-43
2021/03/14 07:49:28;;;;;;;4.10;2.37;;;9.20;56.20;;;;;;5072094;28;20426;-42
2021/03/14 07:51:57;;;;;;;3.50;2.23;;;9.40;56.10;;;;;;5070707;28;20519;-43
2021/03/14 07:54:55;;;;;;;12.00;10.73;;;9.30;56.20;;;;;;5069584;28;20426;-42
2021/03/14 07:57:23;;;;;;;6.83;3.50;;;9.30;56.20;;;;;;5071348;28;20453;-43
2021/03/14 07:59:49;;;;;;;4.40;2.70;;;9.20;55.90;;;;;;5064349;28;20833;-43
2021/03/14 08:02:18;;;;;;;1.33;1.23;;;9.10;56.10;;;;;;5071659;28;20438;-42
2021/03/14 08:04:54;;;;;;;4.60;3.20;;;9.10;55.80;;;;;;5070338;28;20507;-42
2021/03/14 08:07:32;;;;;;;4.20;3.37;;;9.10;55.80;;;;;;5070359;28;20521;-43
2021/03/14 08:09:58;;;;;;;4.10;3.70;;;9.00;55.70;;;;;;5070647;28;20466;-43
2021/03/14 08:12:25;;;;;;;18.13;12.00;;;9.10;55.60;;;;;;5070276;28;20438;-43
2021/03/14 08:14:56;;;;;;;9.97;6.73;;;9.10;55.20;;;;;;5072088;28;20971;-42
2021/03/14 08:17:23;;;;;;;12.70;6.37;;;9.00;55.30;;;;;;5068257;28;20862;-43
2021/03/14 08:19:50;;;;;;;11.50;5.93;;;9.00;55.40;;;;;;5066467;28;20457;-42
2021/03/14 08:22:37;;;;;;;5.00;3.43;;;9.10;55.50;;;;;;5068061;28;20441;-43
2021/03/14 08:25:24;;;;;;;21.07;7.57;;;9.20;55.20;;;;;;5053220;28;20431;-42
2021/03/14 08:27:52;;;;;;;6.47;4.33;;;9.20;54.80;;;;;;5070980;28;20521;-43
2021/03/14 08:30:30;;;;;;;4.67;2.80;;;9.10;54.80;;;;;;5070590;28;20411;-43
2021/03/14 08:33:17;;;;;;;3.03;1.40;;;8.90;54.70;;;;;;5071587;28;21020;-43
2021/03/14 08:35:44;;;;;;;6.73;3.13;;;8.80;55.30;;;;;;5070967;28;20441;-43
2021/03/14 08:38:33;;;;;;;2.60;1.70;;;9.00;55.80;;;;;;5071468;28;20423;-43
2021/03/14 08:41:22;;;;;;;2.87;2.27;;;9.20;55.10;;;;;;5071038;28;20434;-43
2021/03/14 08:43:50;;;;;;;5.57;4.83;;;9.50;54.50;;;;;;5071466;28;20430;-43
2021/03/14 08:46:17;;;;;;;7.90;3.80;;;9.50;54.30;;;;;;5070582;28;20503;-43
2021/03/14 08:48:42;;;;;;;4.77;2.13;;;9.70;54.40;;;;;;5069205;28;20476;-43
2021/03/14 08:51:10;;;;;;;3.23;2.93;;;9.80;54.10;;;;;;5070943;28;20422;-44
2021/03/14 08:53:37;;;;;;;3.43;1.70;;;9.90;54.50;;;;;;5071770;28;20291;-42
2021/03/14 08:56:07;;;;;;;5.27;3.53;;;9.60;53.90;;;;;;5070604;28;20437;-43
2021/03/14 08:58:34;;;;;;;6.47;3.00;;;9.60;53.60;;;;;;5071162;28;20427;-43
2021/03/14 09:01:03;;;;;;;4.27;3.73;;;9.70;53.20;;;;;;5070714;28;20430;-44
2021/03/14 09:03:30;;;;;;;3.17;2.87;;;9.70;53.00;;;;;;5071770;28;20429;-43
2021/03/14 09:06:23;;;;;;;2.47;2.27;;;9.70;53.40;;;;;;5074484;28;20892;-43
2021/03/14 09:08:59;;;;;;;2.40;1.50;;;9.90;53.10;;;;;;5075635;28;20437;-43
2021/03/14 09:11:38;;;;;;;2.27;1.70;;;10.10;52.30;;;;;;5066101;28;20434;-43
2021/03/14 09:14:19;;;;;;;4.03;1.93;;;10.10;51.90;;;;;;5074324;28;20438;-43
2021/03/14 09:16:45;;;;;;;3.77;1.27;;;10.20;52.10;;;;;;5074378;28;20453;-45
2021/03/14 09:19:10;;;;;;;4.60;1.13;;;10.30;52.00;;;;;;5075165;28;20920;-43
2021/03/14 09:22:03;;;;;;;2.30;1.20;;;10.10;50.50;;;;;;5074566;28;20192;-43
2021/03/14 09:24:41;;;;;;;2.80;1.30;;;9.90;52.50;;;;;;5074515;28;20279;-44
2021/03/14 09:27:09;;;;;;;3.50;1.43;;;9.50;51.20;;;;;;5074278;28;20487;-43
2021/03/14 09:29:51;;;;;;;4.63;0.97;;;9.40;51.50;;;;;;5074317;28;20799;-44
2021/03/14 09:32:23;;;;;;;2.47;1.07;;;9.60;51.40;;;;;;5074717;28;20863;-43
2021/03/14 09:34:50;;;;;;;2.30;1.20;;;9.90;51.50;;;;;;5074129;28;20900;-43
2021/03/14 09:37:27;;;;;;;1.07;1.00;;;9.90;51.60;;;;;;5074411;28;20467;-43
2021/03/14 09:40:15;;;;;;;1.93;0.90;;;10.00;51.10;;;;;;5073855;28;20825;-43
2021/03/14 09:42:42;;;;;;;1.63;0.80;;;10.10;50.60;;;;;;5073134;28;20434;-43
2021/03/14 09:45:20;;;;;;;1.73;0.80;;;9.80;50.30;;;;;;5073665;28;20429;-43
2021/03/14 09:47:59;;;;;;;1.50;0.90;;;9.80;50.70;;;;;;5074034;28;20441;-43
2021/03/14 09:50:25;;;;;;;3.40;1.33;;;9.90;51.70;;;;;;5073650;28;20948;-43
2021/03/14 09:52:51;;;;;;;3.27;0.97;;;9.90;51.40;;;;;;5074491;28;20430;-43
2021/03/14 09:55:30;;;;;;;2.80;1.37;;;10.10;50.50;;;;;;5073212;28;20457;-44
2021/03/14 09:57:57;;;;;;;2.70;1.27;;;9.90;50.40;;;;;;5074098;28;20448;-43
2021/03/14 10:00:29;;;;;;;1.43;1.00;;;9.90;51.70;;;;;;5073514;28;20430;-42
2021/03/14 10:02:58;;;;;;;2.47;1.27;;;10.10;50.80;;;;;;5072881;28;20850;-44
2021/03/14 10:05:24;;;;;;;2.60;1.10;;;10.20;50.50;;;;;;5071117;28;20430;-46
2021/03/14 10:07:51;;;;;;;5.80;0.90;;;10.20;49.40;;;;;;5072189;28;20479;-44
2021/03/14 10:10:17;;;;;;;3.03;1.23;;;10.40;49.60;;;;;;5068085;28;20203;-44
2021/03/14 10:12:43;;;;;;;3.13;1.30;;;10.30;49.20;;;;;;5067563;28;20446;-44
2021/03/14 10:15:13;;;;;;;2.90;1.00;;;10.40;48.90;;;;;;5072438;28;20271;-44
2021/03/14 10:17:39;;;;;;;2.60;1.23;;;10.40;48.40;;;;;;5073402;28;20564;-44
2021/03/14 10:20:05;;;;;;;1.40;1.10;;;10.30;48.60;;;;;;5072321;28;20524;-44
2021/03/14 10:22:32;;;;;;;4.27;1.20;;;10.30;48.80;;;;;;5076624;28;20192;-44
2021/03/14 10:24:58;;;;;;;1.23;0.90;;;10.20;49.30;;;;;;5072001;28;20436;-44
2021/03/14 10:27:24;;;;;;;1.33;0.80;;;10.30;49.90;;;;;;5071789;28;21120;-44
2021/03/14 10:29:57;;;;;;;2.37;1.50;;;10.20;49.40;;;;;;5074693;28;20695;-44
2021/03/14 10:32:26;;;;;;;3.00;1.50;;;10.30;49.80;;;;;;5072814;28;20514;-44
2021/03/14 10:34:53;;;;;;;2.93;1.10;;;10.10;49.90;;;;;;5071982;28;20442;-44
2021/03/14 10:37:34;;;;;;;6.53;1.33;;;10.20;50.80;;;;;;5072215;28;20475;-45
2021/03/14 10:40:02;;;;;;;1.00;0.80;;;10.40;50.40;;;;;;5072524;28;20441;-44
2021/03/14 10:42:42;;;;;;;4.00;1.33;;;10.20;50.60;;;;;;5073417;28;20961;-45
2021/03/14 10:45:11;;;;;;;3.93;1.90;;;10.30;50.40;;;;;;5071580;28;20942;-44
2021/03/14 10:47:38;;;;;;;3.83;1.80;;;10.30;50.50;;;;;;5072463;28;20449;-44
2021/03/14 10:50:06;;;;;;;2.50;1.73;;;10.60;50.30;;;;;;5072466;28;20521;-44
2021/03/14 10:52:32;;;;;;;1.57;1.47;;;10.80;50.00;;;;;;5071589;28;20441;-45
2021/03/14 10:54:58;;;;;;;4.10;1.80;;;10.80;49.20;;;;;;5071003;28;20483;-44
2021/03/14 10:57:24;;;;;;;3.07;2.53;;;10.80;48.70;;;;;;5071060;28;20521;-44
2021/03/14 10:59:49;;;;;;;1.83;1.30;;;10.90;49.50;;;;;;5071124;28;20195;-44
2021/03/14 11:02:22;;;;;;;2.17;1.43;;;10.50;48.30;;;;;;5072012;28;20184;-44
2021/03/14 11:04:58;;;;;;;4.47;1.63;;;10.60;49.50;;;;;;5070653;28;20592;-46
2021/03/14 11:07:29;;;;;;;2.33;1.20;;;10.70;49.40;;;;;;5072008;28;20865;-45
2021/03/14 11:10:15;;;;;;;3.33;1.03;;;11.00;49.70;;;;;;5071625;28;20441;-44
2021/03/14 11:12:45;;;;;;;2.17;1.13;;;10.60;48.00;;;;;;5072988;28;20456;-44
2021/03/14 11:15:25;;;;;;;1.70;1.00;;;10.50;47.60;;;;;;5071766;28;20438;-44
2021/03/14 11:17:51;;;;;;;2.37;1.20;;;10.60;48.00;;;;;;5071726;28;20438;-45
2021/03/14 11:20:19;;;;;;;0.60;0.57;;;10.80;47.90;;;;;;5071395;28;20555;-44
2021/03/14 11:22:57;;;;;;;1.33;0.90;;;11.00;47.80;;;;;;5072389;28;20525;-44
2021/03/14 11:25:24;;;;;;;3.13;1.00;;;11.00;46.50;;;;;;5071259;28;20438;-44
2021/03/14 11:27:57;;;;;;;1.23;0.80;;;10.80;45.90;;;;;;5051478;28;20439;-45
2021/03/14 11:30:25;;;;;;;1.47;1.10;;;10.80;46.30;;;;;;5065621;28;20446;-43
2021/03/14 11:32:50;;;;;;;3.30;1.10;;;11.00;46.40;;;;;;5070127;28;20427;-44
2021/03/14 11:35:16;;;;;;;2.30;0.93;;;10.90;45.00;;;;;;5071551;28;20438;-45
2021/03/14 11:37:42;;;;;;;2.60;1.30;;;10.90;45.50;;;;;;5071291;28;20188;-44
2021/03/14 11:40:10;;;;;;;1.00;0.90;;;11.00;45.40;;;;;;5071140;28;20200;-43
2021/03/14 11:42:37;;;;;;;1.83;0.93;;;11.30;45.10;;;;;;5071624;28;20670;-44
2021/03/14 11:45:06;;;;;;;1.57;0.93;;;11.50;44.80;;;;;;5071357;28;20442;-44
2021/03/14 11:47:33;;;;;;;0.87;0.80;;;11.60;44.10;;;;;;5071204;28;20973;-43
2021/03/14 11:49:59;;;;;;;2.30;1.40;;;11.50;44.00;;;;;;5071822;28;20437;-43
2021/03/14 11:52:25;;;;;;;2.90;1.10;;;11.40;44.30;;;;;;5071953;28;20909;-43
2021/03/14 11:54:50;;;;;;;2.83;1.30;;;11.60;45.20;;;;;;5071139;28;20192;-44
2021/03/14 11:57:16;;;;;;;1.73;0.70;;;11.80;43.60;;;;;;5071052;28;20518;-43
2021/03/14 11:59:42;;;;;;;0.80;0.80;;;12.00;42.70;;;;;;5069626;28;20679;-45
2021/03/14 12:02:07;;;;;;;5.73;1.53;;;11.90;42.20;;;;;;5071277;28;20303;-43
2021/03/14 12:04:33;;;;;;;2.13;1.70;;;11.70;42.20;;;;;;5070345;28;20195;-43
2021/03/14 12:06:59;;;;;;;3.43;1.00;;;11.50;42.50;;;;;;5069727;28;20231;-44
2021/03/14 12:09:26;;;;;;;6.17;1.90;;;11.40;42.80;;;;;;5071824;28;20227;-43
2021/03/14 12:11:52;;;;;;;3.37;1.33;;;11.50;42.90;;;;;;5071050;28;20487;-43
2021/03/14 12:14:18;;;;;;;2.30;1.30;;;11.40;43.10;;;;;;5071699;28;21000;-43
2021/03/14 12:16:44;;;;;;;3.17;1.50;;;11.30;43.40;;;;;;5070188;28;20195;-43
2021/03/14 12:19:09;;;;;;;0.90;0.83;;;11.30;44.10;;;;;;5070474;28;20427;-43
2021/03/14 12:21:35;;;;;;;4.57;1.40;;;11.40;44.60;;;;;;5068813;28;20657;-44
2021/03/14 12:24:00;;;;;;;3.67;1.13;;;11.50;44.30;;;;;;5070787;28;20264;-43
2021/03/14 12:26:26;;;;;;;2.70;1.33;;;11.50;44.10;;;;;;5067981;28;20223;-43
2021/03/14 12:28:53;;;;;;;2.87;1.97;;;11.50;44.50;;;;;;5071361;28;20310;-44
2021/03/14 12:31:19;;;;;;;4.87;1.63;;;11.50;44.80;;;;;;5069675;28;20246;-44
2021/03/14 12:33:45;;;;;;;2.93;1.10;;;11.50;44.30;;;;;;5071178;28;20509;-44
2021/03/14 12:36:13;;;;;;;3.80;1.80;;;11.00;44.50;;;;;;5070144;28;20522;-45
2021/03/14 12:38:39;;;;;;;3.50;1.23;;;11.00;47.00;;;;;;5070375;28;20196;-44
2021/03/14 12:41:05;;;;;;;3.57;1.07;;;10.80;48.50;;;;;;5070480;28;20944;-44
2021/03/14 12:43:30;;;;;;;1.60;0.90;;;10.70;49.20;;;;;;5071194;28;20195;-43
2021/03/14 12:45:57;;;;;;;0.90;0.70;;;10.50;49.90;;;;;;5069567;28;20238;-43
2021/03/14 12:48:22;;;;;;;3.33;1.00;;;10.40;50.10;;;;;;5070679;28;20196;-43
2021/03/14 12:50:48;;;;;;;1.63;0.80;;;10.10;49.80;;;;;;5070219;28;20476;-43
2021/03/14 12:53:14;;;;;;;2.40;0.83;;;9.90;51.40;;;;;;5071080;28;20275;-44
2021/03/14 12:55:40;;;;;;;1.37;0.90;;;9.80;52.20;;;;;;5068629;28;20199;-43
2021/03/14 12:58:05;;;;;;;1.93;0.90;;;9.90;53.00;;;;;;5068767;28;20650;-43
2021/03/14 13:00:31;;;;;;;2.97;1.30;;;10.10;52.40;;;;;;5068351;28;20442;-43
2021/03/14 13:02:57;;;;;;;2.13;0.90;;;10.20;52.90;;;;;;5069674;28;20191;-43
2021/03/14 13:05:25;;;;;;;0.93;0.80;;;10.10;52.50;;;;;;5069858;28;20533;-44